Terminal Aerodrome Forecast
Issued by NWS Charleston, WV

Current Version | Previous Version | Graphics & Text | Print | Product List | Glossary On
Versions: 1 2 3 4 5 6 7 8 9 10 11 12 13 14 15 16 17 18 19 20 21
000
FTUS41 KRLX 021120
TAFBKW
TAF
KBKW 021120Z 0212/0312 00000KT P6SM SCT045
     FM021800 31006KT P6SM SCT045
     FM030200 00000KT P6SM SCT045
     FM030400 00000KT P6SM BKN250=

USA.gov is the U.S. government's official web portal to all federal, state and local government web resources and services.